Time;durP1;ratioP1;P1;durP2;ratioP2;P2;SDS_P1;SDS_P2;PMS_P1;PMS_P2;Temp;Humidity;BMP_temperature;BMP_pressure;BME280_temperature;BME280_humidity;BME280_pressure;Samples;Min_cycle;Max_cycle;Signal;HPM_P1;HPM_P2
2023/07/23 00:00:32;;;;;;;10.47;4.93;;;16.20;99.90;;;;;;5084005;28;20225;-77
2023/07/23 00:02:59;;;;;;;8.23;5.30;;;16.20;99.90;;;;;;5079505;28;20212;-80
2023/07/23 00:05:26;;;;;;;9.60;4.60;;;16.10;99.90;;;;;;5081142;28;20274;-77
2023/07/23 00:07:58;;;;;;;6.73;4.50;;;16.10;99.90;;;;;;5058900;28;20208;-77
2023/07/23 00:10:25;;;;;;;8.13;4.67;;;16.10;99.90;;;;;;5061146;28;20330;-77
2023/07/23 00:12:52;;;;;;;6.97;3.73;;;16.10;99.90;;;;;;5055376;28;20232;-76
2023/07/23 00:15:19;;;;;;;5.77;3.80;;;16.10;99.90;;;;;;5061150;28;20200;-78
2023/07/23 00:17:46;;;;;;;7.23;4.60;;;16.20;99.90;;;;;;5046667;28;20205;-77
2023/07/23 00:20:13;;;;;;;9.13;4.60;;;16.20;99.90;;;;;;5067703;28;20239;-76
2023/07/23 00:22:40;;;;;;;8.60;4.90;;;16.20;99.90;;;;;;5040262;28;20209;-78
2023/07/23 00:25:08;;;;;;;9.67;5.10;;;16.30;99.90;;;;;;5068819;28;20216;-77
2023/07/23 00:27:35;;;;;;;9.53;4.90;;;16.30;99.90;;;;;;5068796;28;20248;-78
2023/07/23 00:30:03;;;;;;;7.73;4.63;;;16.30;99.90;;;;;;5052780;28;20199;-78
2023/07/23 00:32:30;;;;;;;9.03;5.13;;;16.40;99.90;;;;;;5053861;28;20238;-77
2023/07/23 00:34:57;;;;;;;9.37;5.13;;;16.30;99.90;;;;;;5063790;28;20208;-78
2023/07/23 00:37:26;;;;;;;8.77;4.57;;;16.40;99.90;;;;;;5067177;28;20212;-78
2023/07/23 00:39:54;;;;;;;9.23;5.73;;;16.40;99.90;;;;;;5029396;28;20216;-78
2023/07/23 00:42:21;;;;;;;8.03;4.70;;;16.40;99.90;;;;;;5066170;28;20224;-77
2023/07/23 00:44:47;;;;;;;9.70;5.23;;;16.30;99.90;;;;;;5055933;28;20248;-77
2023/07/23 00:47:16;;;;;;;10.43;5.87;;;16.30;99.90;;;;;;5049057;28;20676;-77
2023/07/23 00:49:43;;;;;;;9.60;5.03;;;16.20;99.90;;;;;;5059450;28;20204;-79
2023/07/23 00:52:11;;;;;;;9.47;5.93;;;16.30;99.90;;;;;;5046353;28;20228;-76
2023/07/23 00:54:37;;;;;;;12.07;6.37;;;16.20;99.90;;;;;;5068654;28;20204;-78
2023/07/23 00:57:06;;;;;;;10.40;6.40;;;16.20;99.90;;;;;;5054493;28;20269;-78
2023/07/23 00:59:33;;;;;;;10.40;5.73;;;16.20;99.90;;;;;;5068636;28;20204;-77
2023/07/23 01:02:01;;;;;;;13.50;7.50;;;16.20;99.90;;;;;;5037246;28;20235;-78
2023/07/23 01:04:29;;;;;;;13.63;7.10;;;16.20;99.90;;;;;;5068689;28;20299;-78
2023/07/23 01:06:58;;;;;;;14.60;7.60;;;16.20;99.90;;;;;;5062856;28;20204;-78
2023/07/23 01:09:26;;;;;;;12.70;7.47;;;16.20;99.90;;;;;;5041937;28;20309;-78
2023/07/23 01:11:53;;;;;;;16.47;8.03;;;16.20;99.90;;;;;;5067434;28;20228;-78
2023/07/23 01:14:20;;;;;;;14.77;8.30;;;16.20;99.90;;;;;;5054466;28;20208;-78
2023/07/23 01:16:48;;;;;;;14.57;8.10;;;16.20;99.90;;;;;;5053669;28;20197;-79
2023/07/23 01:19:15;;;;;;;14.47;8.33;;;16.20;99.90;;;;;;5055834;28;20279;-77
2023/07/23 01:21:42;;;;;;;19.80;8.77;;;16.20;99.90;;;;;;5030349;28;20739;-78
2023/07/23 01:24:09;;;;;;;16.57;8.87;;;16.20;99.90;;;;;;5055307;28;20312;-77
2023/07/23 01:26:36;;;;;;;18.23;8.97;;;16.20;99.90;;;;;;5062136;28;20220;-78
2023/07/23 01:29:03;;;;;;;18.10;8.90;;;16.20;99.90;;;;;;5068049;28;20215;-78
2023/07/23 01:31:30;;;;;;;16.57;8.83;;;16.20;99.90;;;;;;5049937;28;20332;-80
2023/07/23 01:34:02;;;;;;;15.43;8.37;;;16.20;99.90;;;;;;5061718;28;20380;-78
2023/07/23 01:36:29;;;;;;;15.47;8.47;;;16.20;99.90;;;;;;5051769;28;20564;-78
2023/07/23 01:38:56;;;;;;;13.47;7.87;;;16.20;99.90;;;;;;5047382;28;20653;-78
2023/07/23 01:41:24;;;;;;;14.80;8.50;;;16.30;99.90;;;;;;5051394;28;20205;-77
2023/07/23 01:43:52;;;;;;;17.70;9.27;;;16.20;99.90;;;;;;5059802;28;20281;-77
2023/07/23 01:46:18;;;;;;;15.40;8.43;;;16.20;99.90;;;;;;5067506;28;20208;-78
2023/07/23 01:48:45;;;;;;;16.57;8.80;;;16.30;99.90;;;;;;5064054;28;20206;-77
2023/07/23 01:51:12;;;;;;;14.20;8.60;;;16.20;99.90;;;;;;5054921;28;20270;-78
2023/07/23 01:53:39;;;;;;;15.00;8.93;;;16.20;99.90;;;;;;5037756;28;20673;-77
2023/07/23 01:56:06;;;;;;;16.63;8.80;;;16.20;99.90;;;;;;5054628;28;20201;-78
2023/07/23 01:58:32;;;;;;;15.00;8.87;;;16.30;99.90;;;;;;5070789;28;20216;-78
2023/07/23 02:01:00;;;;;;;16.37;8.63;;;16.20;99.90;;;;;;5068434;28;20285;-77
2023/07/23 02:03:27;;;;;;;15.30;8.43;;;16.20;99.90;;;;;;5067924;28;20715;-78
2023/07/23 02:05:55;;;;;;;14.70;8.27;;;16.30;99.90;;;;;;5072034;28;20212;-77
2023/07/23 02:08:22;;;;;;;14.43;7.77;;;16.20;99.90;;;;;;5052568;28;20217;-77
2023/07/23 02:10:49;;;;;;;13.13;7.67;;;16.20;99.90;;;;;;5054853;28;20212;-78
2023/07/23 02:13:16;;;;;;;12.20;7.93;;;16.00;99.90;;;;;;5042035;28;20729;-78
2023/07/23 02:15:43;;;;;;;12.40;7.37;;;16.20;99.90;;;;;;5051248;28;20219;-78
2023/07/23 02:18:10;;;;;;;12.23;7.53;;;16.20;99.90;;;;;;5070430;28;20665;-78
2023/07/23 02:20:36;;;;;;;13.33;7.80;;;16.20;99.90;;;;;;5068332;28;20204;-78
2023/07/23 02:23:06;;;;;;;13.40;7.03;;;16.20;99.90;;;;;;5038951;28;20208;-80
2023/07/23 02:25:41;;;;;;;11.17;6.83;;;16.10;99.90;;;;;;5038643;28;20200;-78
2023/07/23 02:28:10;;;;;;;11.60;7.17;;;16.10;99.90;;;;;;5065249;28;20215;-77
2023/07/23 02:30:37;;;;;;;10.77;6.80;;;16.10;99.90;;;;;;5061478;28;20220;-78
2023/07/23 02:33:04;;;;;;;12.10;7.20;;;16.10;99.90;;;;;;5062989;28;20738;-79
2023/07/23 02:35:37;;;;;;;13.70;7.30;;;16.10;99.90;;;;;;5067822;28;20590;-79
2023/07/23 02:38:04;;;;;;;12.70;7.17;;;16.10;99.90;;;;;;5058255;28;20212;-79
2023/07/23 02:40:33;;;;;;;13.17;7.90;;;16.10;99.90;;;;;;5056658;28;20215;-79
2023/07/23 02:43:01;;;;;;;11.97;7.40;;;16.10;99.90;;;;;;5065188;28;20563;-78
2023/07/23 02:45:29;;;;;;;15.20;7.57;;;16.10;99.90;;;;;;5057604;28;20205;-79
2023/07/23 02:47:56;;;;;;;12.60;7.37;;;16.10;99.90;;;;;;5066123;28;20200;-77
2023/07/23 02:50:23;;;;;;;12.67;8.03;;;16.10;99.90;;;;;;5041365;28;20193;-79
2023/07/23 02:52:50;;;;;;;11.80;7.27;;;16.10;99.90;;;;;;5052976;28;20250;-79
2023/07/23 02:55:17;;;;;;;15.73;8.53;;;16.10;99.90;;;;;;5055994;28;20249;-78
2023/07/23 02:57:43;;;;;;;14.53;7.70;;;16.10;99.90;;;;;;5032550;28;20217;-78
2023/07/23 03:00:13;;;;;;;12.73;7.97;;;16.10;99.90;;;;;;5063957;28;20652;-79
2023/07/23 03:02:40;;;;;;;13.47;7.47;;;16.10;99.90;;;;;;5049303;28;20727;-79
2023/07/23 03:05:07;;;;;;;13.93;8.10;;;16.10;99.90;;;;;;5054551;28;20243;-79
2023/07/23 03:07:35;;;;;;;13.00;8.17;;;16.10;99.90;;;;;;5057999;28;20544;-78
2023/07/23 03:10:03;;;;;;;12.93;7.30;;;16.00;99.90;;;;;;5040853;28;20204;-78
2023/07/23 03:12:32;;;;;;;14.07;8.73;;;16.10;99.90;;;;;;5038235;28;20232;-79
2023/07/23 03:14:59;;;;;;;13.43;8.67;;;16.10;99.90;;;;;;5070601;28;20208;-77
2023/07/23 03:17:26;;;;;;;11.30;7.50;;;16.10;99.90;;;;;;5069007;28;20208;-79
2023/07/23 03:19:53;;;;;;;14.70;8.10;;;16.10;99.90;;;;;;5070913;28;20215;-78
2023/07/23 03:22:20;;;;;;;15.20;9.00;;;16.10;99.90;;;;;;5057712;28;20255;-79
2023/07/23 03:24:46;;;;;;;14.43;8.17;;;16.10;99.90;;;;;;5055900;28;20208;-79
2023/07/23 03:27:13;;;;;;;17.40;9.53;;;16.10;99.90;;;;;;5045741;28;20945;-79
2023/07/23 03:29:40;;;;;;;16.93;9.00;;;16.10;99.90;;;;;;5052454;28;20205;-78
2023/07/23 03:32:07;;;;;;;14.90;9.23;;;16.10;99.90;;;;;;5064737;28;20285;-79
2023/07/23 03:34:34;;;;;;;16.33;9.50;;;16.10;99.90;;;;;;5068444;28;20207;-79
2023/07/23 03:37:01;;;;;;;17.10;8.97;;;16.10;99.90;;;;;;5045840;28;20449;-79
2023/07/23 03:39:28;;;;;;;16.73;9.37;;;16.00;99.90;;;;;;5052447;28;20570;-79
2023/07/23 03:41:55;;;;;;;16.40;9.70;;;15.90;99.90;;;;;;5034742;28;20229;-78
2023/07/23 03:44:21;;;;;;;17.33;9.67;;;16.30;99.90;;;;;;5041147;28;20213;-77
2023/07/23 03:47:09;;;;;;;13.90;9.87;;;16.00;99.90;;;;;;5060762;28;20244;-78
2023/07/23 03:49:36;;;;;;;15.77;9.47;;;16.00;99.90;;;;;;5062415;28;20204;-78
2023/07/23 03:52:04;;;;;;;15.37;9.67;;;16.00;99.90;;;;;;5069885;28;20293;-78
2023/07/23 03:54:32;;;;;;;15.07;10.07;;;16.00;99.90;;;;;;5062115;28;20227;-78
2023/07/23 03:56:59;;;;;;;16.13;10.23;;;16.00;99.90;;;;;;5055327;28;20267;-76
2023/07/23 03:59:36;;;;;;;15.87;9.27;;;16.10;99.90;;;;;;5001348;28;20213;-79
2023/07/23 04:02:04;;;;;;;16.90;10.03;;;16.10;99.90;;;;;;5060849;28;20232;-80
2023/07/23 04:04:31;;;;;;;15.60;9.93;;;16.10;99.90;;;;;;5068364;28;20257;-78
2023/07/23 04:06:58;;;;;;;15.13;9.20;;;16.10;99.90;;;;;;5065970;28;20199;-79
2023/07/23 04:09:25;;;;;;;17.07;9.67;;;16.10;99.90;;;;;;5061453;28;20213;-79
2023/07/23 04:11:52;;;;;;;16.33;10.13;;;16.10;99.90;;;;;;5049044;28;20212;-80
2023/07/23 04:14:19;;;;;;;16.30;10.00;;;16.10;99.90;;;;;;5062268;28;20227;-79
2023/07/23 04:16:47;;;;;;;18.13;10.07;;;16.10;99.90;;;;;;5048851;28;20283;-81
2023/07/23 04:19:14;;;;;;;16.53;9.83;;;16.10;99.90;;;;;;5056033;28;20200;-79
2023/07/23 04:21:41;;;;;;;15.93;9.63;;;16.10;99.90;;;;;;5032177;28;20300;-80
2023/07/23 04:24:08;;;;;;;16.97;10.20;;;16.20;99.90;;;;;;5049482;28;20680;-79
2023/07/23 04:26:34;;;;;;;17.20;9.73;;;16.20;99.90;;;;;;5041388;28;20218;-77
2023/07/23 04:29:01;;;;;;;15.67;10.00;;;16.20;99.90;;;;;;5045120;28;20478;-78
2023/07/23 04:31:28;;;;;;;16.53;9.97;;;16.20;99.90;;;;;;5050471;28;20197;-78
2023/07/23 04:33:55;;;;;;;19.20;9.43;;;16.20;99.90;;;;;;5036272;28;20314;-78
2023/07/23 04:36:22;;;;;;;13.97;9.03;;;16.20;99.90;;;;;;5055952;28;20206;-78
2023/07/23 04:38:49;;;;;;;14.13;8.47;;;16.30;99.90;;;;;;5054272;28;20208;-78
2023/07/23 04:41:16;;;;;;;14.10;9.20;;;16.20;99.90;;;;;;5056126;28;20189;-80
2023/07/23 04:43:43;;;;;;;14.30;8.93;;;16.20;99.90;;;;;;5046172;28;20213;-79
2023/07/23 04:46:11;;;;;;;18.20;9.57;;;16.20;99.90;;;;;;5042536;28;20202;-80
2023/07/23 04:48:38;;;;;;;15.53;9.30;;;16.20;99.90;;;;;;5046010;28;20767;-79
2023/07/23 04:51:06;;;;;;;15.53;9.47;;;16.20;99.90;;;;;;5048804;28;20216;-79
2023/07/23 04:53:35;;;;;;;17.17;9.00;;;16.30;99.90;;;;;;5044237;28;20353;-78
2023/07/23 04:56:03;;;;;;;16.43;8.97;;;16.30;99.90;;;;;;5042068;28;20205;-79
2023/07/23 04:58:31;;;;;;;13.90;8.70;;;16.30;99.90;;;;;;5051933;28;20274;-77
2023/07/23 05:01:04;;;;;;;15.17;8.33;;;16.30;99.90;;;;;;5051378;28;20290;-76
2023/07/23 05:03:31;;;;;;;12.93;7.83;;;16.30;99.90;;;;;;5031382;28;20693;-77
2023/07/23 05:06:02;;;;;;;17.17;8.40;;;16.30;99.90;;;;;;5053377;28;20573;-78
2023/07/23 05:08:30;;;;;;;15.00;7.77;;;16.40;99.90;;;;;;5051183;28;20216;-78
2023/07/23 05:11:01;;;;;;;9.77;7.40;;;16.40;99.90;;;;;;5053957;28;20211;-79
2023/07/23 05:13:28;;;;;;;13.93;8.07;;;16.50;99.90;;;;;;5059378;28;20247;-78
2023/07/23 05:15:57;;;;;;;13.03;7.93;;;16.50;99.90;;;;;;5050916;28;20201;-78
2023/07/23 05:18:24;;;;;;;10.67;6.67;;;16.50;99.90;;;;;;5035689;28;20301;-78
2023/07/23 05:20:51;;;;;;;11.53;7.10;;;16.60;99.90;;;;;;5051760;28;20197;-76
2023/07/23 05:23:18;;;;;;;8.93;6.35;;;16.70;99.90;;;;;;5049426;28;20622;-78
2023/07/23 05:25:45;;;;;;;10.60;6.20;;;16.70;99.90;;;;;;5046869;28;20211;-79
2023/07/23 05:28:12;;;;;;;11.93;6.75;;;16.70;99.90;;;;;;5060551;28;20306;-77
2023/07/23 05:30:40;;;;;;;9.18;6.03;;;16.90;99.90;;;;;;5049652;28;20204;-77
2023/07/23 05:33:07;;;;;;;8.18;5.03;;;16.80;99.90;;;;;;5049499;28;20628;-79
2023/07/23 05:35:35;;;;;;;9.73;5.53;;;16.80;99.90;;;;;;5054457;28;20474;-77
2023/07/23 05:38:03;;;;;;;8.63;5.35;;;16.90;99.90;;;;;;5053691;28;20269;-77
2023/07/23 05:40:31;;;;;;;7.85;4.75;;;16.90;99.90;;;;;;5048205;28;20200;-78
2023/07/23 05:42:59;;;;;;;8.10;4.95;;;17.00;99.90;;;;;;5055067;28;20716;-77
2023/07/23 05:45:26;;;;;;;7.28;5.15;;;17.00;99.90;;;;;;5039697;28;20228;-79
2023/07/23 05:47:53;;;;;;;8.50;5.25;;;17.00;99.90;;;;;;5054002;28;20237;-77
2023/07/23 05:50:20;;;;;;;8.40;4.80;;;17.00;99.90;;;;;;5053634;28;20208;-79
2023/07/23 05:52:46;;;;;;;10.27;5.45;;;17.00;99.90;;;;;;5025885;28;20220;-79
2023/07/23 05:55:13;;;;;;;7.95;5.20;;;17.00;99.90;;;;;;5065555;28;20208;-77
2023/07/23 05:57:40;;;;;;;7.85;5.50;;;17.10;99.90;;;;;;5048771;28;20221;-79
2023/07/23 06:00:07;;;;;;;7.07;4.95;;;17.10;99.90;;;;;;5054405;28;20657;-77
2023/07/23 06:02:34;;;;;;;9.40;5.45;;;17.10;99.90;;;;;;5046737;28;20537;-79
2023/07/23 06:05:01;;;;;;;8.52;5.40;;;17.10;99.90;;;;;;5045268;28;20229;-77
2023/07/23 06:07:31;;;;;;;8.55;5.10;;;17.20;99.90;;;;;;5051303;28;20575;-77
2023/07/23 06:09:58;;;;;;;7.38;4.95;;;17.20;99.90;;;;;;5062689;28;20224;-78
2023/07/23 06:12:25;;;;;;;8.65;5.07;;;17.20;99.90;;;;;;5056784;28;20588;-80
2023/07/23 06:14:52;;;;;;;9.48;5.63;;;17.20;99.90;;;;;;5065050;28;20472;-79
2023/07/23 06:17:18;;;;;;;9.07;5.05;;;17.20;99.90;;;;;;5061536;28;20262;-77
2023/07/23 06:19:45;;;;;;;7.60;5.68;;;17.30;99.90;;;;;;5049039;28;20213;-78
2023/07/23 06:22:12;;;;;;;8.70;5.20;;;17.20;99.90;;;;;;5047340;28;20270;-77
2023/07/23 06:24:39;;;;;;;10.13;5.38;;;17.30;99.90;;;;;;5051709;28;20718;-77
2023/07/23 06:27:06;;;;;;;10.32;5.30;;;17.40;99.90;;;;;;5046254;28;20689;-77
2023/07/23 06:29:33;;;;;;;8.23;5.13;;;17.30;99.90;;;;;;5069651;28;20193;-78
2023/07/23 06:32:00;;;;;;;6.97;4.47;;;17.40;99.90;;;;;;5069202;28;20224;-79
2023/07/23 06:34:27;;;;;;;7.97;4.53;;;17.40;99.90;;;;;;5051491;28;20227;-78
2023/07/23 06:36:54;;;;;;;9.52;4.95;;;17.30;99.90;;;;;;5059975;28;20361;-78
2023/07/23 06:39:20;;;;;;;8.38;5.13;;;17.20;99.90;;;;;;5059919;28;20209;-78
2023/07/23 06:41:47;;;;;;;7.82;4.80;;;17.20;99.90;;;;;;5040173;28;20274;-77
2023/07/23 06:44:14;;;;;;;6.85;4.25;;;17.30;99.90;;;;;;5040315;28;20677;-80
2023/07/23 06:46:41;;;;;;;6.00;3.70;;;17.30;99.90;;;;;;5056457;28;20209;-78
2023/07/23 06:49:08;;;;;;;9.60;4.45;;;17.20;99.90;;;;;;5052618;28;20197;-79
2023/07/23 06:51:35;;;;;;;14.07;5.07;;;17.30;99.90;;;;;;5054210;28;20200;-82
2023/07/23 06:54:02;;;;;;;10.35;4.68;;;17.20;99.90;;;;;;5037567;28;20227;-82
2023/07/23 06:56:29;;;;;;;9.30;4.95;;;17.00;99.90;;;;;;5042052;28;20243;-81
2023/07/23 06:58:55;;;;;;;6.88;4.53;;;17.00;99.90;;;;;;5034204;28;20303;-84
2023/07/23 07:01:23;;;;;;;7.68;4.40;;;16.90;99.90;;;;;;5050733;28;20217;-83
2023/07/23 07:03:50;;;;;;;8.77;5.00;;;16.80;99.90;;;;;;5066569;28;20207;-81
2023/07/23 07:06:17;;;;;;;7.45;4.15;;;16.80;99.90;;;;;;5070812;28;20208;-81
2023/07/23 07:08:44;;;;;;;8.02;4.95;;;16.80;99.90;;;;;;5071126;28;20284;-79
2023/07/23 07:11:11;;;;;;;7.57;4.60;;;16.90;99.90;;;;;;5045890;28;20204;-80
2023/07/23 07:13:41;;;;;;;9.25;4.82;;;16.90;99.90;;;;;;5052468;28;20766;-81
2023/07/23 07:16:10;;;;;;;8.10;4.43;;;16.90;99.90;;;;;;5048441;28;20737;-80
2023/07/23 07:18:37;;;;;;;7.18;4.68;;;16.90;99.90;;;;;;5066824;28;20712;-81
2023/07/23 07:21:04;;;;;;;7.60;4.57;;;16.90;99.90;;;;;;5052743;28;20654;-81
2023/07/23 07:23:31;;;;;;;8.30;4.25;;;16.90;99.90;;;;;;5067857;28;20208;-82
2023/07/23 07:26:00;;;;;;;9.68;4.82;;;16.80;99.90;;;;;;5045888;28;20212;-80
2023/07/23 07:28:29;;;;;;;8.57;5.50;;;16.70;99.90;;;;;;5067736;28;20224;-79
2023/07/23 07:30:58;;;;;;;9.10;4.63;;;16.80;99.90;;;;;;5070738;28;20231;-81
2023/07/23 07:33:26;;;;;;;8.77;4.97;;;16.60;99.90;;;;;;5070302;28;20225;-81
2023/07/23 07:35:58;;;;;;;8.45;4.75;;;16.60;99.90;;;;;;5068326;28;20236;-81
2023/07/23 07:38:26;;;;;;;8.52;5.07;;;16.60;99.90;;;;;;5052687;28;20212;-81
2023/07/23 07:40:56;;;;;;;7.72;4.88;;;16.70;99.90;;;;;;5061002;28;20624;-81
2023/07/23 07:43:23;;;;;;;7.15;4.57;;;16.70;99.90;;;;;;5064681;28;20724;-81
2023/07/23 07:45:54;;;;;;;9.55;4.57;;;16.80;99.90;;;;;;5052614;28;20216;-81
2023/07/23 07:48:21;;;;;;;7.63;4.38;;;16.80;99.90;;;;;;5051847;28;20215;-80
2023/07/23 07:50:56;;;;;;;7.65;4.68;;;16.80;99.90;;;;;;5070676;28;20567;-80
2023/07/23 07:53:23;;;;;;;9.40;4.57;;;16.90;99.90;;;;;;5065056;28;20668;-83
2023/07/23 07:55:50;;;;;;;7.78;5.28;;;17.00;99.90;;;;;;5041629;28;20568;-81
2023/07/23 07:58:17;;;;;;;9.13;4.78;;;17.10;99.90;;;;;;5058960;28;20220;-81
2023/07/23 08:00:44;;;;;;;7.13;4.35;;;17.30;99.90;;;;;;5069590;28;20236;-82
2023/07/23 08:03:11;;;;;;;5.53;3.97;;;17.50;99.90;;;;;;5056565;28;20283;-80
2023/07/23 08:05:39;;;;;;;5.70;3.97;;;17.60;99.90;;;;;;5070146;28;20220;-80
2023/07/23 08:08:06;;;;;;;6.85;4.28;;;17.60;99.90;;;;;;5052134;28;20198;-80
2023/07/23 08:10:36;;;;;;;6.40;4.28;;;17.70;99.90;;;;;;5069754;28;20291;-80
2023/07/23 08:13:04;;;;;;;7.07;4.28;;;17.70;99.90;;;;;;5056585;28;20221;-80
2023/07/23 08:15:32;;;;;;;6.68;4.00;;;17.60;99.90;;;;;;5058178;28;20645;-79
2023/07/23 08:18:02;;;;;;;6.28;4.25;;;17.60;99.90;;;;;;5063264;28;20563;-80
2023/07/23 08:20:32;;;;;;;5.85;3.85;;;17.50;99.90;;;;;;5062891;28;20572;-80
2023/07/23 08:23:00;;;;;;;6.95;3.90;;;17.50;99.90;;;;;;5032810;28;20198;-77
2023/07/23 08:25:29;;;;;;;6.00;3.65;;;17.60;99.90;;;;;;5069565;28;20212;-80
2023/07/23 08:28:01;;;;;;;4.78;3.80;;;17.50;99.90;;;;;;5051501;28;20224;-78
2023/07/23 08:30:29;;;;;;;6.40;3.58;;;17.50;99.90;;;;;;5062751;28;20208;-83
2023/07/23 08:33:00;;;;;;;7.15;3.90;;;17.50;99.90;;;;;;5069833;28;20227;-79
2023/07/23 08:35:29;;;;;;;4.97;3.40;;;17.50;99.90;;;;;;5042762;28;20636;-79
2023/07/23 08:37:59;;;;;;;6.20;3.88;;;17.40;99.90;;;;;;5065974;28;20214;-80
2023/07/23 08:40:26;;;;;;;5.63;4.18;;;17.40;99.90;;;;;;5071122;28;20278;-81
2023/07/23 08:42:56;;;;;;;5.97;4.00;;;17.40;99.90;;;;;;5070562;28;20217;-79
2023/07/23 08:45:37;;;;;;;5.78;3.70;;;17.40;99.90;;;;;;5038185;28;20687;-81
2023/07/23 08:48:18;;;;;;;5.97;3.90;;;17.40;99.90;;;;;;5070075;28;20200;-79
2023/07/23 08:50:49;;;;;;;4.82;3.50;;;17.40;99.90;;;;;;5051306;28;20216;-79
2023/07/23 08:53:17;;;;;;;5.10;3.10;;;17.40;99.90;;;;;;5067496;28;20287;-82
2023/07/23 08:55:46;;;;;;;4.72;3.38;;;17.40;99.90;;;;;;5051111;28;20216;-80
2023/07/23 08:58:16;;;;;;;6.40;3.45;;;17.40;99.90;;;;;;5067092;28;20693;-79
2023/07/23 09:00:44;;;;;;;4.20;3.30;;;17.40;99.90;;;;;;5046340;28;20232;-80
2023/07/23 09:03:12;;;;;;;5.43;3.58;;;17.40;99.90;;;;;;5066847;28;20223;-79
2023/07/23 09:05:39;;;;;;;5.15;3.05;;;17.10;99.90;;;;;;5068429;28;20619;-78
2023/07/23 09:08:07;;;;;;;7.78;3.67;;;17.40;99.90;;;;;;5055342;28;20209;-79
2023/07/23 09:10:34;;;;;;;4.25;3.35;;;17.40;99.90;;;;;;5069718;28;20204;-76
2023/07/23 09:13:11;;;;;;;6.70;3.53;;;17.50;99.90;;;;;;5066144;28;20744;-79
2023/07/23 09:15:38;;;;;;;4.53;3.33;;;17.50;99.90;;;;;;5059367;28;20204;-77
2023/07/23 09:18:04;;;;;;;8.00;3.80;;;17.60;99.90;;;;;;5067138;28;20208;-80
2023/07/23 09:20:31;;;;;;;5.95;3.63;;;17.50;99.90;;;;;;5057902;28;20202;-79
2023/07/23 09:23:06;;;;;;;5.70;3.47;;;17.50;99.90;;;;;;5048967;28;20327;-80
2023/07/23 09:25:33;;;;;;;5.85;3.60;;;17.60;99.90;;;;;;5049359;28;20204;-82
2023/07/23 09:28:00;;;;;;;5.97;4.05;;;17.20;99.90;;;;;;5061556;28;20213;-78
2023/07/23 09:30:28;;;;;;;7.40;3.72;;;17.60;99.90;;;;;;5053159;28;20259;-78
2023/07/23 09:33:01;;;;;;;4.60;3.42;;;17.70;99.90;;;;;;5066739;28;20676;-80
2023/07/23 09:35:30;;;;;;;7.60;4.25;;;17.80;99.90;;;;;;5059578;28;20439;-77
2023/07/23 09:38:00;;;;;;;5.93;3.83;;;17.80;99.90;;;;;;5068194;28;20569;-78
2023/07/23 09:40:38;;;;;;;6.93;4.03;;;17.90;99.90;;;;;;5050730;28;20711;-76
2023/07/23 09:43:05;;;;;;;5.45;3.67;;;18.00;99.90;;;;;;5068492;28;20224;-78
2023/07/23 09:45:39;;;;;;;4.88;3.58;;;18.00;99.90;;;;;;5058574;28;20633;-77
2023/07/23 09:48:07;;;;;;;6.10;3.97;;;18.10;99.90;;;;;;5065052;28;20810;-77
2023/07/23 09:50:45;;;;;;;5.20;3.58;;;18.10;99.90;;;;;;5068875;28;20661;-76
2023/07/23 09:53:15;;;;;;;5.57;3.88;;;18.10;99.90;;;;;;5067844;28;20204;-77
2023/07/23 09:55:45;;;;;;;5.22;3.55;;;18.10;99.90;;;;;;5063157;28;20253;-78
2023/07/23 09:58:15;;;;;;;5.43;3.63;;;18.10;99.90;;;;;;5050232;28;20217;-78
2023/07/23 10:00:43;;;;;;;6.28;3.95;;;18.20;99.90;;;;;;5037740;28;20237;-79
2023/07/23 10:03:14;;;;;;;6.22;4.10;;;18.20;99.90;;;;;;5052471;28;20377;-77
2023/07/23 10:05:42;;;;;;;8.25;4.25;;;18.30;99.90;;;;;;5061919;28;20584;-77
2023/07/23 10:08:11;;;;;;;6.65;3.83;;;18.30;99.90;;;;;;5055448;28;20286;-80
2023/07/23 10:10:38;;;;;;;6.00;3.63;;;18.40;99.90;;;;;;5030588;28;20208;-76
2023/07/23 10:13:05;;;;;;;4.72;3.65;;;18.50;99.90;;;;;;5070821;28;20232;-79
2023/07/23 10:15:32;;;;;;;4.93;3.80;;;18.50;99.90;;;;;;5053855;28;20715;-82
2023/07/23 10:18:01;;;;;;;7.95;4.13;;;18.50;99.90;;;;;;5071500;28;20261;-78
2023/07/23 10:20:29;;;;;;;7.07;3.92;;;18.40;99.90;;;;;;5059931;28;20205;-78
2023/07/23 10:22:57;;;;;;;8.35;4.07;;;18.30;99.90;;;;;;5066343;28;20193;-80
2023/07/23 10:25:32;;;;;;;6.95;3.95;;;18.30;99.90;;;;;;5063707;28;20213;-81
2023/07/23 10:28:08;;;;;;;5.32;3.85;;;18.30;99.90;;;;;;5071353;28;20278;-79
2023/07/23 10:30:38;;;;;;;5.78;3.97;;;18.30;99.90;;;;;;5071534;28;20201;-78
2023/07/23 10:33:11;;;;;;;7.75;4.07;;;18.40;99.90;;;;;;5071826;28;20196;-79
2023/07/23 10:35:54;;;;;;;5.45;3.65;;;18.30;99.90;;;;;;5058704;28;20239;-77
2023/07/23 10:38:23;;;;;;;5.95;4.00;;;18.40;99.90;;;;;;5071831;28;20269;-78
2023/07/23 10:40:50;;;;;;;5.20;3.65;;;18.40;99.90;;;;;;5071528;28;20221;-77
2023/07/23 10:43:18;;;;;;;5.13;3.22;;;18.50;99.90;;;;;;5071267;28;20255;-78
2023/07/23 10:46:13;;;;;;;4.60;3.10;;;18.60;99.90;;;;;;5070974;28;20215;-76
2023/07/23 10:48:49;;;;;;;5.55;3.35;;;18.80;99.90;;;;;;5052014;28;20216;-79
2023/07/23 10:51:23;;;;;;;5.45;3.25;;;18.80;99.90;;;;;;5044899;28;20197;-78
2023/07/23 10:54:02;;;;;;;4.90;3.30;;;19.00;99.90;;;;;;5062813;28;20653;-78
2023/07/23 10:56:32;;;;;;;5.38;3.03;;;19.10;99.90;;;;;;5045411;28;20232;-78
2023/07/23 10:59:05;;;;;;;3.97;3.05;;;19.00;99.90;;;;;;5070912;28;20204;-77
2023/07/23 11:01:37;;;;;;;3.75;2.30;;;19.10;99.90;;;;;;5049254;28;20642;-80
2023/07/23 11:04:10;;;;;;;3.13;2.22;;;19.10;99.90;;;;;;5049513;28;20266;-81
2023/07/23 11:06:41;;;;;;;2.45;1.85;;;19.10;99.90;;;;;;5061583;28;20209;-78
2023/07/23 11:09:13;;;;;;;3.08;2.13;;;19.10;99.90;;;;;;5069507;28;20211;-78
2023/07/23 11:11:41;;;;;;;3.53;2.03;;;19.10;99.90;;;;;;5071210;28;20220;-77
2023/07/23 11:14:22;;;;;;;2.58;1.73;;;19.00;99.90;;;;;;5070841;28;20251;-78
2023/07/23 11:16:50;;;;;;;1.73;1.63;;;18.90;99.90;;;;;;5061189;28;20213;-79
2023/07/23 11:19:19;;;;;;;1.98;1.55;;;18.80;99.90;;;;;;5070708;28;20684;-78
2023/07/23 11:21:52;;;;;;;2.05;1.60;;;18.70;99.90;;;;;;5057211;28;20201;-78
2023/07/23 11:24:20;;;;;;;2.10;1.38;;;18.70;99.90;;;;;;5038280;28;20213;-77
2023/07/23 11:26:47;;;;;;;1.98;1.45;;;18.70;99.90;;;;;;5063908;28;20217;-78
2023/07/23 11:29:15;;;;;;;1.48;1.20;;;18.70;99.90;;;;;;5070584;28;20511;-78
2023/07/23 11:31:42;;;;;;;1.73;1.45;;;18.70;99.90;;;;;;5070884;28;20211;-79
2023/07/23 11:34:10;;;;;;;2.85;1.20;;;18.80;99.90;;;;;;5070184;28;20693;-81
2023/07/23 11:36:38;;;;;;;2.03;1.35;;;18.80;99.90;;;;;;5049967;28;20200;-79
2023/07/23 11:39:07;;;;;;;1.70;1.30;;;18.70;99.90;;;;;;5064235;28;20193;-78
2023/07/23 11:41:40;;;;;;;2.30;1.90;;;18.60;99.90;;;;;;5055466;28;20212;-76
2023/07/23 11:44:08;;;;;;;2.83;2.15;;;18.70;99.90;;;;;;5070402;28;20246;-76
2023/07/23 11:46:37;;;;;;;3.97;2.80;;;18.70;99.90;;;;;;5070492;28;20250;-77
2023/07/23 11:49:12;;;;;;;4.28;3.00;;;18.80;99.90;;;;;;5052748;28;20733;-79
2023/07/23 11:51:39;;;;;;;4.35;2.83;;;18.80;99.90;;;;;;5069860;28;20288;-78
2023/07/23 11:54:09;;;;;;;3.35;2.53;;;18.80;99.90;;;;;;5069142;28;20704;-79
2023/07/23 11:56:41;;;;;;;4.10;3.10;;;19.00;99.90;;;;;;5054866;28;20225;-78
2023/07/23 11:59:10;;;;;;;4.75;3.05;;;19.10;99.90;;;;;;5065242;28;20668;-80
2023/07/23 12:01:38;;;;;;;5.00;3.35;;;19.40;99.90;;;;;;5065023;28;20229;-78
2023/07/23 12:04:06;;;;;;;6.38;3.53;;;19.50;99.90;;;;;;5066448;28;20704;-78
2023/07/23 12:06:36;;;;;;;5.15;3.65;;;19.70;99.90;;;;;;5070089;28;20208;-81
2023/07/23 12:09:10;;;;;;;5.80;4.10;;;19.90;99.90;;;;;;5070554;28;20636;-77
2023/07/23 12:11:39;;;;;;;6.85;4.70;;;20.00;99.90;;;;;;5069081;28;20209;-79
2023/07/23 12:14:07;;;;;;;4.97;3.65;;;20.10;99.90;;;;;;5050558;28;20220;-78
2023/07/23 12:16:52;;;;;;;6.32;4.05;;;20.20;99.90;;;;;;5062695;28;20212;-79
2023/07/23 12:19:20;;;;;;;4.47;3.85;;;20.40;99.90;;;;;;5055955;28;20204;-78
2023/07/23 12:21:53;;;;;;;5.65;3.70;;;20.70;99.90;;;;;;5047792;28;20211;-77
2023/07/23 12:24:27;;;;;;;5.25;4.15;;;20.80;99.90;;;;;;5052504;28;20289;-78
2023/07/23 12:26:56;;;;;;;6.10;4.05;;;20.80;99.90;;;;;;5069648;28;20642;-78
2023/07/23 12:29:25;;;;;;;5.43;4.38;;;20.80;99.90;;;;;;5057787;28;20212;-77
2023/07/23 12:32:16;;;;;;;6.32;4.15;;;20.80;99.90;;;;;;5066867;28;20216;-77
2023/07/23 12:34:44;;;;;;;5.03;3.60;;;20.90;99.90;;;;;;5068854;28;20224;-80
2023/07/23 12:37:12;;;;;;;6.05;4.07;;;20.90;99.90;;;;;;5059167;28;20197;-78
2023/07/23 12:39:39;;;;;;;6.13;4.53;;;20.70;99.90;;;;;;5057299;28;20534;-77
2023/07/23 12:42:06;;;;;;;5.57;3.83;;;20.60;99.90;;;;;;5051291;28;20445;-80
2023/07/23 12:44:32;;;;;;;6.03;4.05;;;20.80;99.90;;;;;;5069492;28;20223;-80
2023/07/23 12:46:59;;;;;;;5.13;3.75;;;20.90;99.90;;;;;;5068935;28;20262;-78
2023/07/23 12:49:26;;;;;;;5.50;4.00;;;21.20;99.90;;;;;;5055997;28;20205;-78